Dati storici per la stazione Pomeziameteo
 
Giornaliero Riepilogo per Luglio 05, 2022 Unità:  Metrico    English   Both
Giornaliero Settimanale Mensile Annuale
  Corrente: Alta: Bassa: Media:
Temperatura : 30.3 °C 31.3 °C 22.1 °C 26.5 °C
Punto di rugiada : 19.9 °C 22.5 °C 17.1 °C 20.3 °C
Umidità : 54% 86% 45% 71%
Vel. del vento : 6.4km/h 22.5km/h 0km/h 3.5km/h
Raffica di vento : 9.7km/h 22.5km/h - -
Vento SW - - South
Pressione : 1012.5 hPa 1013.2 hPa 1011.9 hPa -
Precipitazione : 0.0 mm      
 
 
Dati tabulari per Luglio 05, 2022
Ora Temperatura Punto di rugiada Pressione Vento Velocità del vento Raffica di vento Umidità Tasso di pioggia (Ogni ora)
00:00 25.3 °C 19.9 °C 1012.9 hPa WSW 1.6 km/h 3.2 km/h 72% 0.0 mm
00:05 25.3 °C 20.3 °C 1012.9 hPa West 1.6 km/h 1.6 km/h 74% 0.0 mm
00:10 25.3 °C 20.6 °C 1012.9 hPa NW 1.6 km/h 1.6 km/h 75% 0.0 mm
00:15 25.4 °C 20.8 °C 1012.9 hPa Calm   3.2 km/h 76% 0.0 mm
00:20 25.5 °C 21.1 °C 1012.9 hPa SW 1.6 km/h 3.2 km/h 77% 0.0 mm
00:25 25.6 °C 21.2 °C 1012.5 hPa Calm   3.2 km/h 77% 0.0 mm
00:30 25.6 °C 21.4 °C 1012.5 hPa Calm   3.2 km/h 78% 0.0 mm
00:35 25.6 °C 21.4 °C 1012.5 hPa WNW 1.6 km/h 3.2 km/h 78% 0.0 mm
00:40 25.6 °C 21.4 °C 1012.5 hPa Calm   4.8 km/h 78% 0.0 mm
00:45 25.6 °C 21.6 °C 1012.5 hPa WNW 1.6 km/h 4.8 km/h 79% 0.0 mm
00:50 25.6 °C 21.6 °C 1012.5 hPa WSW 1.6 km/h 6.4 km/h 79% 0.0 mm
00:55 25.5 °C 21.6 °C 1012.5 hPa West 1.6 km/h 6.4 km/h 79% 0.0 mm
01:00 25.5 °C 21.8 °C 1012.9 hPa SW 1.6 km/h 4.8 km/h 80% 0.0 mm
01:05 25.4 °C 21.9 °C 1012.5 hPa Calm   4.8 km/h 81% 0.0 mm
01:10 25.4 °C 21.9 °C 1012.5 hPa Calm   3.2 km/h 81% 0.0 mm
01:15 25.3 °C 21.8 °C 1012.5 hPa WNW 4.8 km/h 9.7 km/h 81% 0.0 mm
01:20 25.3 °C 21.7 °C 1012.2 hPa NW 1.6 km/h 4.8 km/h 81% 0.0 mm
01:25 25.3 °C 21.7 °C 1012.2 hPa NW 6.4 km/h 6.4 km/h 81% 0.0 mm
01:30 25.2 °C 21.6 °C 1012.2 hPa NW 3.2 km/h 12.9 km/h 81% 0.0 mm
01:35 25.1 °C 21.6 °C 1012.2 hPa Calm   4.8 km/h 81% 0.0 mm
01:40 25.1 °C 21.6 °C 1012.2 hPa WNW 1.6 km/h 4.8 km/h 81% 0.0 mm
01:45 25.1 °C 21.6 °C 1012.2 hPa NW 3.2 km/h 6.4 km/h 81% 0.0 mm
01:50 25.1 °C 21.6 °C 1012.2 hPa Calm   9.7 km/h 81% 0.0 mm
01:55 25.1 °C 21.6 °C 1012.2 hPa West 1.6 km/h 8 km/h 81% 0.0 mm
02:00 25.1 °C 21.6 °C 1012.2 hPa Calm   4.8 km/h 81% 0.0 mm
02:05 25.1 °C 21.6 °C 1012.2 hPa WNW 1.6 km/h 4.8 km/h 81% 0.0 mm
02:10 25 °C 21.5 °C 1011.9 hPa Calm   6.4 km/h 81% 0.0 mm
02:15 24.9 °C 21.4 °C 1012.2 hPa WNW 1.6 km/h 6.4 km/h 81% 0.0 mm
02:20 24.9 °C 21.4 °C 1012.2 hPa WNW 3.2 km/h 8 km/h 81% 0.0 mm
02:25 24.9 °C 21.6 °C 1012.2 hPa NW 1.6 km/h 6.4 km/h 82% 0.0 mm
02:30 24.8 °C 21.5 °C 1011.9 hPa Calm   6.4 km/h 82% 0.0 mm
02:35 24.8 °C 21.4 °C 1011.9 hPa NW 1.6 km/h 4.8 km/h 82% 0.0 mm
02:40 24.7 °C 21.4 °C 1011.9 hPa WNW 4.8 km/h 4.8 km/h 82% 0.0 mm
02:45 24.7 °C 21.4 °C 1012.2 hPa WNW 1.6 km/h 11.3 km/h 82% 0.0 mm
02:50 24.7 °C 21.6 °C 1012.2 hPa Calm   4.8 km/h 83% 0.0 mm
02:55 24.7 °C 21.6 °C 1012.2 hPa NNW 3.2 km/h 6.4 km/h 83% 0.0 mm
03:00 24.7 °C 21.6 °C 1012.2 hPa Calm   3.2 km/h 83% 0.0 mm
03:05 24.6 °C 21.5 °C 1012.2 hPa North 1.6 km/h 3.2 km/h 83% 0.0 mm
03:10 24.6 °C 21.7 °C 1012.2 hPa Calm   3.2 km/h 84% 0.0 mm
03:15 24.5 °C 21.4 °C 1012.2 hPa NE 3.2 km/h 4.8 km/h 83% 0.0 mm
03:20 23.8 °C 20.7 °C 1012.2 hPa NE 3.2 km/h 4.8 km/h 83% 0.0 mm
03:25 23.5 °C 20.6 °C 1012.2 hPa ENE 1.6 km/h 4.8 km/h 84% 0.0 mm
03:30 23.4 °C 20.7 °C 1011.9 hPa Calm   6.4 km/h 85% 0.0 mm
03:35 23.4 °C 20.7 °C 1012.2 hPa Calm   1.6 km/h 85% 0.0 mm
03:40 23.4 °C 20.7 °C 1012.2 hPa ENE 1.6 km/h 3.2 km/h 85% 0.0 mm
03:45 23.4 °C 20.9 °C 1012.2 hPa Calm   1.6 km/h 86% 0.0 mm
03:50 23.4 °C 20.9 °C 1012.2 hPa Calm     86% 0.0 mm
03:55 23.4 °C 20.7 °C 1012.2 hPa Calm     85% 0.0 mm
04:00 23.5 °C 20.8 °C 1012.2 hPa Calm   1.6 km/h 85% 0.0 mm
04:05 23.5 °C 20.8 °C 1011.9 hPa Calm   1.6 km/h 85% 0.0 mm
04:10 23.4 °C 20.7 °C 1012.2 hPa ENE 1.6 km/h 3.2 km/h 85% 0.0 mm
04:15 23.3 °C 20.6 °C 1011.9 hPa ESE 6.4 km/h 9.7 km/h 85% 0.0 mm
04:20 23.2 °C 20.4 °C 1011.9 hPa ESE 1.6 km/h 9.7 km/h 85% 0.0 mm
04:25 23.1 °C 20.4 °C 1012.2 hPa Calm   4.8 km/h 85% 0.0 mm
04:30 23.1 °C 20.4 °C 1012.2 hPa ESE 1.6 km/h 1.6 km/h 85% 0.0 mm
04:35 23.1 °C 20.4 °C 1012.2 hPa ESE 3.2 km/h 4.8 km/h 85% 0.0 mm
04:40 22.9 °C 20.3 °C 1011.9 hPa ESE 4.8 km/h 9.7 km/h 85% 0.0 mm
04:45 22.9 °C 20.4 °C 1011.9 hPa ESE 1.6 km/h 6.4 km/h 86% 0.0 mm
04:50 22.8 °C 20.3 °C 1011.9 hPa ESE 4.8 km/h 6.4 km/h 86% 0.0 mm
04:55 22.8 °C 20.3 °C 1011.9 hPa ESE 3.2 km/h 9.7 km/h 86% 0.0 mm
05:00 22.8 °C 20.3 °C 1011.9 hPa East 4.8 km/h 6.4 km/h 86% 0.0 mm
05:05 22.8 °C 20.3 °C 1011.9 hPa ESE 3.2 km/h 6.4 km/h 86% 0.0 mm
05:10 22.8 °C 20.3 °C 1011.9 hPa ESE 1.6 km/h 3.2 km/h 86% 0.0 mm
05:15 22.7 °C 20.1 °C 1011.9 hPa SE 3.2 km/h 4.8 km/h 85% 0.0 mm
05:20 22.7 °C 20 °C 1011.9 hPa SE 4.8 km/h 6.4 km/h 85% 0.0 mm
05:25 22.5 °C 19.8 °C 1011.9 hPa SE 6.4 km/h 6.4 km/h 85% 0.0 mm
05:30 22.4 °C 19.7 °C 1011.9 hPa SE 3.2 km/h 6.4 km/h 85% 0.0 mm
05:35 22.4 °C 19.7 °C 1011.9 hPa SE 1.6 km/h 4.8 km/h 85% 0.0 mm
05:45 22.8 °C 19.4 °C 1011.9 hPa SSE 6.4 km/h 8 km/h 81% 0.0 mm
05:50 22.8 °C 18.9 °C 1011.9 hPa SSE 11.3 km/h 11.3 km/h 79% 0.0 mm
05:55 22.8 °C 18.7 °C 1011.9 hPa SSE 3.2 km/h 11.3 km/h 78% 0.0 mm
06:00 22.6 °C 18.9 °C 1011.9 hPa SSE 1.6 km/h 8 km/h 80% 0.0 mm
06:05 22.4 °C 18.6 °C 1011.9 hPa South 3.2 km/h 8 km/h 79% 0.0 mm
06:10 22.4 °C 18.2 °C 1012.2 hPa SSE 1.6 km/h 6.4 km/h 77% 0.0 mm
06:15 22.4 °C 18.3 °C 1012.2 hPa South 1.6 km/h 4.8 km/h 78% 0.0 mm
06:20 22.3 °C 18.3 °C 1012.5 hPa SSE 1.6 km/h 6.4 km/h 78% 0.0 mm
06:25 22.1 °C 18.3 °C 1012.5 hPa SSE 4.8 km/h 8 km/h 79% 0.0 mm
06:30 22.2 °C 18.5 °C 1012.5 hPa South 3.2 km/h 6.4 km/h 80% 0.0 mm
06:35 22.2 °C 18.6 °C 1012.5 hPa SSE 3.2 km/h 8 km/h 80% 0.0 mm
06:40 22.1 °C 18.4 °C 1012.5 hPa SSE 4.8 km/h 9.7 km/h 80% 0.0 mm
06:45 22.3 °C 18.6 °C 1012.5 hPa South 3.2 km/h 12.9 km/h 80% 0.0 mm
06:50 22.4 °C 18.7 °C 1012.5 hPa South 4.8 km/h 12.9 km/h 80% 0.0 mm
06:55 22.7 °C 19 °C 1012.5 hPa SSE 6.4 km/h 12.9 km/h 80% 0.0 mm
07:00 22.9 °C 19.2 °C 1012.5 hPa SSE 9.7 km/h 14.5 km/h 80% 0.0 mm
07:05 23.1 °C 19.4 °C 1012.5 hPa SE 11.3 km/h 14.5 km/h 80% 0.0 mm
07:10 23.2 °C 19.5 °C 1012.5 hPa SSE 4.8 km/h 12.9 km/h 80% 0.0 mm
07:15 23.4 °C 19.8 °C 1012.5 hPa SE 11.3 km/h 17.7 km/h 80% 0.0 mm
07:20 23.7 °C 20 °C 1012.9 hPa ESE 12.9 km/h 14.5 km/h 80% 0.0 mm
07:25 23.9 °C 20 °C 1012.9 hPa SE 6.4 km/h 14.5 km/h 79% 0.0 mm
07:30 24 °C 20.1 °C 1012.5 hPa ESE 6.4 km/h 19.3 km/h 79% 0.0 mm
07:35 24.2 °C 20.1 °C 1012.9 hPa SE 11.3 km/h 16.1 km/h 78% 0.0 mm
07:40 24.3 °C 19.9 °C 1012.9 hPa SE 6.4 km/h 17.7 km/h 77% 0.0 mm
07:45 24.4 °C 19.8 °C 1012.9 hPa SE 4.8 km/h 16.1 km/h 76% 0.0 mm
07:50 24.6 °C 20 °C 1012.9 hPa SE 8 km/h 12.9 km/h 76% 0.0 mm
07:55 24.7 °C 19.9 °C 1012.9 hPa SSE 4.8 km/h 11.3 km/h 75% 0.0 mm
08:00 25 °C 20.2 °C 1012.9 hPa SSE 9.7 km/h 12.9 km/h 75% 0.0 mm
08:05 25.2 °C 20.2 °C 1012.9 hPa ESE 6.4 km/h 11.3 km/h 74% 0.0 mm
08:10 25.4 °C 20.6 °C 1012.9 hPa SE 8 km/h 12.9 km/h 75% 0.0 mm
08:15 25.4 °C 20.9 °C 1012.9 hPa SE 8 km/h 14.5 km/h 76% 0.0 mm
08:20 25.7 °C 20.9 °C 1012.9 hPa South 3.2 km/h 12.9 km/h 75% 0.0 mm
08:25 25.9 °C 20.9 °C 1012.9 hPa SSE 3.2 km/h 9.7 km/h 74% 0.0 mm
08:30 26 °C 20.7 °C 1012.9 hPa SSE 1.6 km/h 9.7 km/h 73% 0.0 mm
08:35 26.2 °C 20.9 °C 1012.9 hPa SE 4.8 km/h 8 km/h 73% 0.0 mm
08:40 26.4 °C 20.7 °C 1012.9 hPa South 3.2 km/h 9.7 km/h 71% 0.0 mm
08:45 26.9 °C 20.7 °C 1012.9 hPa SSE 1.6 km/h 6.4 km/h 69% 0.0 mm
08:50 27.2 °C 20.2 °C 1013.2 hPa Calm   8 km/h 66% 0.0 mm
08:55 27.3 °C 19.6 °C 1013.2 hPa SSE 1.6 km/h 8 km/h 63% 0.0 mm
09:00 27.6 °C 20.3 °C 1013.2 hPa SSE 4.8 km/h 9.7 km/h 65% 0.0 mm
09:05 27.6 °C 19.6 °C 1013.2 hPa Calm   6.4 km/h 62% 0.0 mm
09:10 28.3 °C 20.6 °C 1013.2 hPa SSE 1.6 km/h 3.2 km/h 63% 0.0 mm
09:15 28.4 °C 20.2 °C 1013.2 hPa SW 1.6 km/h 4.8 km/h 61% 0.0 mm
09:20 28.6 °C 19.2 °C 1013.2 hPa SSE 8 km/h 9.7 km/h 57% 0.0 mm
09:25 28.2 °C 19.1 °C 1013.2 hPa SSW 3.2 km/h 9.7 km/h 58% 0.0 mm
09:30 28.9 °C 19.2 °C 1013.2 hPa Calm   3.2 km/h 56% 0.0 mm
09:35 29.1 °C 18.8 °C 1013.2 hPa SSE 6.4 km/h 11.3 km/h 54% 0.0 mm
09:40 28.8 °C 18.6 °C 1013.2 hPa South 6.4 km/h 11.3 km/h 54% 0.0 mm
09:45 29.2 °C 18.8 °C 1013.2 hPa Calm   9.7 km/h 54% 0.0 mm
09:50 30 °C 19.3 °C 1013.2 hPa Calm   3.2 km/h 53% 0.0 mm
09:55 29.8 °C 19.1 °C 1013.2 hPa SSW 1.6 km/h 6.4 km/h 53% 0.0 mm
10:00 29.9 °C 18.6 °C 1013.2 hPa Calm   9.7 km/h 51% 0.0 mm
10:05 30.3 °C 18.4 °C 1013.2 hPa SE 4.8 km/h 6.4 km/h 49% 0.0 mm
10:10 30.2 °C 17.6 °C 1013.2 hPa Calm   6.4 km/h 47% 0.0 mm
10:15 30.3 °C 18.1 °C 1013.2 hPa SSW 1.6 km/h 6.4 km/h 48% 0.0 mm
10:20 30.3 °C 19 °C 1013.2 hPa Calm   6.4 km/h 51% 0.0 mm
10:25 30.2 °C 19.2 °C 1013.2 hPa Calm   6.4 km/h 52% 0.0 mm
10:30 30 °C 19 °C 1013.2 hPa SW 3.2 km/h 9.7 km/h 52% 0.0 mm
10:35 29.7 °C 18.4 °C 1013.2 hPa SE 6.4 km/h 9.7 km/h 51% 0.0 mm
10:40 30.1 °C 18.8 °C 1012.9 hPa SSE 1.6 km/h 6.4 km/h 51% 0.0 mm
10:45 30.3 °C 19.6 °C 1012.9 hPa Calm   8 km/h 53% 0.0 mm
10:50 30 °C 18.7 °C 1012.9 hPa SSE 22.5 km/h 22.5 km/h 51% 0.0 mm
10:55 29.8 °C 18.5 °C 1012.9 hPa SSE 4.8 km/h 22.5 km/h 51% 0.0 mm
11:00 29.8 °C 17.9 °C 1012.9 hPa South 6.4 km/h 11.3 km/h 49% 0.0 mm
11:05 30.4 °C 17.1 °C 1012.9 hPa NNE 1.6 km/h 4.8 km/h 45% 0.0 mm
11:10 30.9 °C 18.3 °C 1013.2 hPa SW 3.2 km/h 4.8 km/h 47% 0.0 mm
11:15 31.2 °C 19.2 °C 1013.2 hPa SSW 1.6 km/h 12.9 km/h 49% 0.0 mm
11:20 31.3 °C 20.8 °C 1012.9 hPa SW 6.4 km/h 12.9 km/h 54% 0.0 mm
11:25 31.2 °C 21.3 °C 1013.2 hPa North 4.8 km/h 9.7 km/h 56% 0.0 mm
11:30 31.1 °C 21.2 °C 1013.2 hPa SSE 8 km/h 12.9 km/h 56% 0.0 mm
11:35 30.4 °C 21.2 °C 1013.2 hPa SW 4.8 km/h 14.5 km/h 58% 0.0 mm
11:40 30.3 °C 20.8 °C 1013.2 hPa South 6.4 km/h 12.9 km/h 57% 0.0 mm
11:45 30.2 °C 21.2 °C 1012.9 hPa South 8 km/h 14.5 km/h 59% 0.0 mm
11:50 29.8 °C 20.9 °C 1013.2 hPa Calm   17.7 km/h 59% 0.0 mm
11:55 30 °C 21.3 °C 1013.2 hPa SW 4.8 km/h 14.5 km/h 60% 0.0 mm
12:00 30 °C 20.8 °C 1013.2 hPa Calm   16.1 km/h 58% 0.0 mm
12:05 29.7 °C 20.8 °C 1013.2 hPa SSE 4.8 km/h 14.5 km/h 59% 0.0 mm
12:10 29.8 °C 21.2 °C 1013.2 hPa SE 8 km/h 16.1 km/h 60% 0.0 mm
12:15 29.9 °C 21 °C 1012.9 hPa WNW 3.2 km/h 16.1 km/h 59% 0.0 mm
12:20 30.5 °C 20.7 °C 1012.9 hPa SSW 6.4 km/h 12.9 km/h 56% 0.0 mm
12:25 30.4 °C 20.6 °C 1012.9 hPa South 4.8 km/h 11.3 km/h 56% 0.0 mm
12:30 30.7 °C 20.3 °C 1012.9 hPa SSW 1.6 km/h 11.3 km/h 54% 0.0 mm
12:35 31.1 °C 19.7 °C 1012.9 hPa West 1.6 km/h 11.3 km/h 51% 0.0 mm
12:40 30.9 °C 19.6 °C 1012.9 hPa SSE 8 km/h 16.1 km/h 51% 0.0 mm
12:45 30.9 °C 19.8 °C 1012.9 hPa NNW 3.2 km/h 14.5 km/h 52% 0.0 mm
12:50 30.7 °C 18.7 °C 1012.9 hPa South 3.2 km/h 11.3 km/h 49% 0.0 mm
12:55 30.7 °C 18.7 °C 1012.9 hPa South 6.4 km/h 19.3 km/h 49% 0.0 mm
13:00 30.7 °C 18.7 °C 1012.9 hPa SSE 6.4 km/h 12.9 km/h 49% 0.0 mm
13:05 30.7 °C 18 °C 1012.5 hPa SSE 11.3 km/h 14.5 km/h 47% 0.0 mm
13:10 30.3 °C 19.6 °C 1012.5 hPa SSE 6.4 km/h 16.1 km/h 53% 0.0 mm
13:15 30.4 °C 19.4 °C 1012.9 hPa West 1.6 km/h 12.9 km/h 52% 0.0 mm
13:20 31.2 °C 20.1 °C 1012.9 hPa NE 3.2 km/h 6.4 km/h 52% 0.0 mm
13:25 31.2 °C 20.7 °C 1012.9 hPa Calm   12.9 km/h 54% 0.0 mm
13:30 30.8 °C 21.2 °C 1012.9 hPa SW 3.2 km/h 16.1 km/h 57% 0.0 mm
13:35 30.8 °C 21.5 °C 1012.5 hPa South 9.7 km/h 12.9 km/h 58% 0.0 mm
13:40 30.6 °C 21.6 °C 1012.5 hPa SW 4.8 km/h 11.3 km/h 59% 0.0 mm
13:45 30.3 °C 21.3 °C 1012.5 hPa SW 1.6 km/h 12.9 km/h 59% 0.0 mm
13:50 30.4 °C 21.8 °C 1012.9 hPa SE 4.8 km/h 14.5 km/h 60% 0.0 mm
13:55 30.1 °C 22 °C 1012.9 hPa WSW 3.2 km/h 19.3 km/h 62% 0.0 mm
14:00 30.2 °C 22.1 °C 1012.5 hPa WSW 4.8 km/h 9.7 km/h 62% 0.0 mm
14:05 30.1 °C 22.2 °C 1012.5 hPa NE 1.6 km/h 14.5 km/h 63% 0.0 mm
14:10 30.2 °C 22.1 °C 1012.5 hPa SSW 1.6 km/h 8 km/h 62% 0.0 mm
14:15 30 °C 22.2 °C 1012.5 hPa SSE 6.4 km/h 16.1 km/h 63% 0.0 mm
14:20 30.1 °C 22.5 °C 1012.5 hPa Calm   8 km/h 64% 0.0 mm
14:25 30.3 °C 22.4 °C 1012.5 hPa SSW 6.4 km/h 11.3 km/h 63% 0.0 mm
14:30 30.3 °C 22.4 °C 1012.5 hPa SW 1.6 km/h 11.3 km/h 63% 0.0 mm
14:35 30.1 °C 21.7 °C 1012.5 hPa South 3.2 km/h 14.5 km/h 61% 0.0 mm
14:40 30.3 °C 19.9 °C 1012.5 hPa SW 6.4 km/h 9.7 km/h 54% 0.0 mm
Città di POMEZIA
Compliments of Weather Underground - 2 mb